createdAt,value
2022-08-22T00:00:13.837Z,98668.91
2022-08-22T00:02:58.022Z,98662.61
2022-08-22T00:03:10.557Z,98671.27
2022-08-22T00:03:17.585Z,98669.19
2022-08-22T00:06:23.204Z,98671.41
2022-08-22T00:09:11.475Z,98672.56
2022-08-22T00:11:45.466Z,98676.02
2022-08-22T00:14:30.422Z,98679.06
2022-08-22T00:17:06.592Z,98672.90
2022-08-22T00:19:42.740Z,98676.11
2022-08-22T00:22:27.852Z,98676.44
2022-08-22T00:25:25.610Z,98680.69
2022-08-22T00:27:59.668Z,98681.02
2022-08-22T00:30:28.287Z,98686.83
2022-08-22T00:33:16.856Z,98688.28
2022-08-22T00:35:48.609Z,98686.02
2022-08-22T00:38:22.102Z,98683.43
2022-08-22T00:41:23.963Z,98681.96
2022-08-22T00:44:08.839Z,98682.63
2022-08-22T00:46:46.822Z,98693.40
2022-08-22T00:49:49.493Z,98684.31
2022-08-22T00:52:40.307Z,98685.18
2022-08-22T00:55:46.540Z,98686.74
2022-08-22T00:58:22.904Z,98687.78
2022-08-22T01:01:02.251Z,98690.10
2022-08-22T01:04:06.512Z,98690.92
2022-08-22T01:06:48.907Z,98687.41
2022-08-22T01:09:28.640Z,98686.72
2022-08-22T01:12:15.300Z,98688.73
2022-08-22T01:14:55.685Z,98688.51
2022-08-22T01:17:47.416Z,98686.20
2022-08-22T01:20:59.305Z,98691.72
2022-08-22T01:24:01.343Z,98695.41
2022-08-22T01:26:57.654Z,98696.51
2022-08-22T01:29:43.345Z,98702.58
2022-08-22T01:32:29.758Z,98710.79
2022-08-22T01:35:32.841Z,98709.34
2022-08-22T01:38:36.702Z,98707.29
2022-08-22T01:41:27.122Z,98703.83
2022-08-22T01:44:34.931Z,98706.65
2022-08-22T01:47:11.006Z,98706.21
2022-08-22T01:49:46.929Z,98702.27
2022-08-22T01:52:34.033Z,98700.27
2022-08-22T01:55:21.714Z,98697.75
2022-08-22T01:57:57.171Z,98698.19
2022-08-22T02:00:38.018Z,98698.91
2022-08-22T02:03:26.240Z,98700.05
2022-08-22T02:06:07.578Z,98701.73
2022-08-22T02:08:38.419Z,98697.20
2022-08-22T02:11:34.024Z,98696.23
2022-08-22T02:14:45.089Z,98698.67
2022-08-22T02:17:30.026Z,98697.09
2022-08-22T02:20:24.036Z,98697.42
2022-08-22T02:23:08.995Z,98695.00
2022-08-22T02:26:09.523Z,98691.96
2022-08-22T02:28:57.111Z,98691.21
2022-08-22T02:31:45.284Z,98693.06
2022-08-22T02:34:41.367Z,98691.65
2022-08-22T02:37:16.798Z,98694.69
2022-08-22T02:39:51.923Z,98697.14
2022-08-22T02:42:31.712Z,98695.30
2022-08-22T02:45:26.592Z,98700.61
2022-08-22T02:48:02.066Z,98700.50
2022-08-22T02:50:45.704Z,98699.30
2022-08-22T02:53:37.905Z,98700.71
2022-08-22T02:56:18.534Z,98700.22
2022-08-22T02:59:00.565Z,98700.83
2022-08-22T03:01:29.989Z,98700.56
2022-08-22T03:04:27.940Z,98701.97
2022-08-22T03:06:58.367Z,98701.16
2022-08-22T03:09:37.648Z,98702.58
2022-08-22T03:12:34.721Z,98695.59
2022-08-22T03:15:17.463Z,98703.00
2022-08-22T03:17:54.733Z,98703.61
2022-08-22T03:20:48.357Z,98706.04
2022-08-22T03:23:24.279Z,98707.50
2022-08-22T03:26:13.060Z,98705.77
2022-08-22T03:28:58.998Z,98702.60
2022-08-22T03:31:30.201Z,98703.45
2022-08-22T03:34:17.009Z,98701.39
2022-08-22T03:37:07.389Z,98705.88
2022-08-22T03:40:04.455Z,98712.12
2022-08-22T03:42:55.798Z,98711.92
2022-08-22T03:45:50.912Z,98714.27
2022-08-22T03:48:45.865Z,98722.81
2022-08-22T03:51:31.413Z,98721.85
2022-08-22T03:54:30.691Z,98722.56
2022-08-22T03:57:06.414Z,98726.63
2022-08-22T04:00:16.625Z,98721.39
2022-08-22T04:03:14.106Z,98722.86
2022-08-22T04:05:58.161Z,98722.65
2022-08-22T04:08:52.889Z,98721.57
2022-08-22T04:11:31.672Z,98722.21
2022-08-22T04:14:06.209Z,98731.59
2022-08-22T04:16:48.321Z,98734.92
2022-08-22T04:19:44.229Z,98738.92
2022-08-22T04:22:36.233Z,98736.50
2022-08-22T04:25:10.100Z,98735.79
2022-08-22T04:27:53.307Z,98738.83
2022-08-22T04:30:39.812Z,98739.86
2022-08-22T04:33:22.398Z,98738.72
2022-08-22T04:36:38.618Z,98740.23
2022-08-22T04:39:17.637Z,98743.48
2022-08-22T04:42:29.106Z,98750.29
2022-08-22T04:45:16.441Z,98748.36
2022-08-22T04:48:01.237Z,98751.55
2022-08-22T04:50:46.213Z,98754.14
2022-08-22T04:53:38.450Z,98753.81
2022-08-22T04:56:28.354Z,98757.16
2022-08-22T04:59:08.048Z,98759.98
2022-08-22T05:01:59.224Z,98757.11
2022-08-22T05:04:38.721Z,98759.98
2022-08-22T05:07:12.353Z,98759.81
2022-08-22T05:09:52.894Z,98765.02
2022-08-22T05:12:31.794Z,98765.98
2022-08-22T05:15:14.321Z,98769.94
2022-08-22T05:17:48.992Z,98768.79
2022-08-22T05:20:21.193Z,98769.98
2022-08-22T05:22:53.302Z,98771.01
2022-08-22T05:25:26.512Z,98767.91
2022-08-22T05:28:14.444Z,98768.63
2022-08-22T05:30:43.710Z,98773.71
2022-08-22T05:33:33.770Z,98776.69
2022-08-22T05:36:07.115Z,98776.56
2022-08-22T05:38:39.321Z,98779.12
2022-08-22T05:41:35.117Z,98780.86
2022-08-22T05:44:13.396Z,98781.23
2022-08-22T05:46:43.841Z,98786.89
2022-08-22T05:49:27.279Z,98791.94
2022-08-22T05:52:23.470Z,98796.15
2022-08-22T05:55:07.704Z,98796.10
2022-08-22T05:57:38.761Z,98796.86
2022-08-22T06:00:55.135Z,98795.17
2022-08-22T06:04:25.053Z,98797.06
2022-08-22T06:07:33.719Z,98798.89
2022-08-22T06:10:34.830Z,98801.26
2022-08-22T06:13:35.743Z,98800.19
2022-08-22T06:16:26.380Z,98804.45
2022-08-22T06:18:57.220Z,98801.48
2022-08-22T06:21:39.545Z,98800.44
2022-08-22T06:24:10.142Z,98802.95
2022-08-22T06:26:48.753Z,98798.73
2022-08-22T06:29:29.412Z,98797.57
2022-08-22T06:31:58.424Z,98797.86
2022-08-22T06:34:31.184Z,98798.44
2022-08-22T06:37:03.848Z,98798.85
2022-08-22T06:39:34.639Z,98795.95
2022-08-22T06:42:17.050Z,98796.15
2022-08-22T06:44:50.462Z,98795.08
2022-08-22T06:47:25.487Z,98796.55
2022-08-22T06:50:17.715Z,98804.89
2022-08-22T06:53:13.194Z,98806.72
2022-08-22T06:55:51.185Z,98807.45
2022-08-22T06:58:33.953Z,98806.83
2022-08-22T07:01:12.418Z,98809.91
2022-08-22T07:03:45.747Z,98808.44
2022-08-22T07:06:18.272Z,98815.10
2022-08-22T07:08:52.996Z,98817.29
2022-08-22T07:11:28.025Z,98814.67
2022-08-22T07:14:02.331Z,98821.31
2022-08-22T07:16:33.873Z,98818.79
2022-08-22T07:19:01.987Z,98814.15
2022-08-22T07:21:42.725Z,98818.33
2022-08-22T07:24:11.233Z,98822.90
2022-08-22T07:26:51.759Z,98828.35
2022-08-22T07:29:44.321Z,98828.08
2022-08-22T07:32:17.738Z,98827.80
2022-08-22T07:34:58.082Z,98828.25
2022-08-22T07:37:44.703Z,98826.70
2022-08-22T07:40:22.216Z,98826.65
2022-08-22T07:42:55.660Z,98826.55
2022-08-22T07:45:47.242Z,98831.48
2022-08-22T07:48:27.561Z,98834.90
2022-08-22T07:51:10.273Z,98831.67
2022-08-22T07:53:44.552Z,98830.40
2022-08-22T07:56:26.572Z,98835.20
2022-08-22T07:58:58.849Z,98835.89
2022-08-22T08:02:07.495Z,98833.83
2022-08-22T08:04:57.325Z,98831.30
2022-08-22T08:07:38.862Z,98829.73
2022-08-22T08:10:47.495Z,98832.91
2022-08-22T08:14:03.619Z,98831.86
2022-08-22T08:17:40.880Z,98836.20
2022-08-22T08:20:37.101Z,98838.61
2022-08-22T08:23:25.138Z,98826.66
2022-08-22T08:26:29.028Z,98832.61
2022-08-22T08:29:14.657Z,98839.31
2022-08-22T08:35:28.243Z,98834.33
2022-08-22T08:38:32.251Z,98839.02
2022-08-22T08:42:00.657Z,98842.72
2022-08-22T08:45:08.987Z,98847.88
2022-08-22T08:48:26.745Z,98847.09
2022-08-22T08:51:34.123Z,98839.34
2022-08-22T08:54:57.748Z,98842.17
2022-08-22T08:58:23.586Z,98846.01
2022-08-22T09:02:02.262Z,98844.13
2022-08-22T09:05:31.933Z,98848.98
2022-08-22T09:09:03.067Z,98847.64
2022-08-22T09:12:01.779Z,98848.02
2022-08-22T09:19:31.812Z,98845.79
2022-08-22T09:22:50.508Z,98845.36
2022-08-22T09:25:54.166Z,98845.30
2022-08-22T09:29:09.836Z,98842.36
2022-08-22T09:32:12.962Z,98838.41
2022-08-22T09:42:02.442Z,98841.54
2022-08-22T09:45:30.011Z,98841.20
2022-08-22T09:48:32.768Z,98825.02
2022-08-22T09:52:15.188Z,98829.02
2022-08-22T09:55:39.599Z,98830.08
2022-08-22T09:59:01.076Z,98835.69
2022-08-22T10:01:50.563Z,98838.11
2022-08-22T10:05:13.946Z,98844.20
2022-08-22T10:09:04.270Z,98844.27
2022-08-22T10:12:41.937Z,98837.55
2022-08-22T10:15:47.613Z,98842.80
2022-08-22T10:19:00.837Z,98841.70
2022-08-22T10:21:50.405Z,98847.84
2022-08-22T10:24:45.289Z,98846.68
2022-08-22T10:27:47.431Z,98845.19
2022-08-22T10:30:31.328Z,98842.92
2022-08-22T10:33:44.728Z,98844.19
2022-08-22T10:36:55.005Z,98840.69
2022-08-22T10:39:43.964Z,98838.45
2022-08-22T10:42:42.211Z,98838.24
2022-08-22T10:45:40.593Z,98849.05
2022-08-22T10:48:35.087Z,98845.05
2022-08-22T10:51:58.380Z,98843.24
2022-08-22T10:55:18.525Z,98844.98
2022-08-22T10:58:18.781Z,98844.08
2022-08-22T11:01:38.406Z,98835.99
2022-08-22T11:05:04.898Z,98838.20
2022-08-22T11:08:09.533Z,98840.45
2022-08-22T11:11:14.460Z,98838.79
2022-08-22T11:14:44.787Z,98838.77
2022-08-22T11:17:55.684Z,98838.51
2022-08-22T11:21:02.248Z,98840.67
2022-08-22T11:24:35.266Z,98833.17
2022-08-22T11:27:46.832Z,98842.56
2022-08-22T11:30:44.185Z,98843.36
2022-08-22T11:33:56.696Z,98847.58
2022-08-22T11:36:58.565Z,98847.64
2022-08-22T11:39:56.396Z,98841.11
2022-08-22T11:43:32.855Z,98840.33
2022-08-22T11:46:46.087Z,98847.70
2022-08-22T11:49:58.618Z,98841.73
2022-08-22T11:52:54.880Z,98841.99
2022-08-22T11:55:55.068Z,98847.96
2022-08-22T11:58:43.948Z,98845.23
2022-08-22T12:01:50.364Z,98847.27
2022-08-22T12:04:52.141Z,98843.97
2022-08-22T12:07:53.018Z,98838.17
2022-08-22T12:10:54.544Z,98836.90
2022-08-22T12:14:06.030Z,98835.86
2022-08-22T12:16:59.517Z,98838.47
2022-08-22T12:20:17.528Z,98838.98
2022-08-22T12:27:06.546Z,98838.44
2022-08-22T12:33:56.751Z,98842.93
2022-08-22T12:37:32.639Z,98838.18
2022-08-22T12:40:32.109Z,98836.55
2022-08-22T12:43:33.659Z,98834.02
2022-08-22T12:46:46.536Z,98837.02
2022-08-22T12:49:31.796Z,98830.80
2022-08-22T12:52:48.481Z,98831.83
2022-08-22T12:55:28.842Z,98828.52
2022-08-22T12:58:11.214Z,98823.17
2022-08-22T13:00:49.827Z,98815.58
2022-08-22T13:03:40.430Z,98817.08
2022-08-22T13:06:48.854Z,98808.75
2022-08-22T13:09:35.153Z,98818.55
2022-08-22T13:12:29.412Z,98809.87
2022-08-22T13:15:39.329Z,98813.75
2022-08-22T13:18:31.471Z,98812.77
2022-08-22T13:21:04.882Z,98817.92
2022-08-22T13:23:50.880Z,98808.18
2022-08-22T13:26:39.031Z,98808.47
2022-08-22T13:29:47.894Z,98811.15
2022-08-22T13:33:00.164Z,98808.27
2022-08-22T13:36:02.516Z,98808.20
2022-08-22T13:39:23.154Z,98804.58
2022-08-22T13:42:14.541Z,98813.39
2022-08-22T13:45:14.772Z,98809.38
2022-08-22T13:47:53.685Z,98815.30
2022-08-22T13:50:53.338Z,98805.77
2022-08-22T13:54:10.874Z,98814.26
2022-08-22T13:57:13.865Z,98815.54
2022-08-22T14:00:28.792Z,98816.13
2022-08-22T14:03:27.673Z,98815.36
2022-08-22T14:06:36.917Z,98818.79
2022-08-22T14:09:32.600Z,98822.06
2022-08-22T14:12:18.945Z,98818.41
2022-08-22T14:15:11.923Z,98824.73
2022-08-22T14:18:21.869Z,98822.13
2022-08-22T14:21:48.626Z,98825.46
2022-08-22T14:24:58.575Z,98824.58
2022-08-22T14:28:03.179Z,98823.60
2022-08-22T14:31:18.646Z,98826.95
2022-08-22T14:34:16.527Z,98829.24
2022-08-22T14:37:03.916Z,98827.91
2022-08-22T14:39:50.915Z,98822.92
2022-08-22T14:42:34.534Z,98826.61
2022-08-22T14:45:21.889Z,98823.91
2022-08-22T14:48:31.620Z,98817.69
2022-08-22T14:51:08.665Z,98823.24
2022-08-22T14:53:48.767Z,98817.80
2022-08-22T14:56:40.931Z,98816.95
2022-08-22T14:59:50.168Z,98813.34
2022-08-22T15:02:28.573Z,98807.40
2022-08-22T15:05:14.908Z,98806.94
2022-08-22T15:07:55.632Z,98812.35
2022-08-22T15:10:32.922Z,98809.23
2022-08-22T15:13:09.037Z,98809.05
2022-08-22T15:15:53.424Z,98815.66
2022-08-22T15:18:39.159Z,98814.70
2022-08-22T15:21:24.530Z,98812.55
2022-08-22T15:24:10.059Z,98808.55
2022-08-22T15:26:55.459Z,98802.48
2022-08-22T15:29:50.540Z,98805.63
2022-08-22T15:32:46.110Z,98803.55
2022-08-22T15:35:33.478Z,98805.87
2022-08-22T15:38:48.258Z,98800.30
2022-08-22T15:41:24.846Z,98797.06
2022-08-22T15:44:32.360Z,98801.84
2022-08-22T15:47:39.703Z,98809.56
2022-08-22T15:50:27.959Z,98810.52
2022-08-22T15:53:31.191Z,98809.45
2022-08-22T15:56:15.882Z,98804.02
2022-08-22T15:59:00.840Z,98804.41
2022-08-22T16:01:49.684Z,98798.52
2022-08-22T16:04:39.755Z,98793.61
2022-08-22T16:07:27.943Z,98789.73
2022-08-22T16:10:02.831Z,98789.42
2022-08-22T16:12:44.279Z,98794.84
2022-08-22T16:15:54.091Z,98793.81
2022-08-22T16:18:45.716Z,98789.83
2022-08-22T16:21:20.473Z,98789.61
2022-08-22T16:23:53.997Z,98792.29
2022-08-22T16:26:50.667Z,98799.89
2022-08-22T16:29:41.810Z,98805.77
2022-08-22T16:32:23.630Z,98804.09
2022-08-22T16:35:01.201Z,98817.29
2022-08-22T16:37:51.374Z,98818.23
2022-08-22T16:40:32.017Z,98821.48
2022-08-22T16:43:28.789Z,98832.88
2022-08-22T16:46:39.044Z,98832.42
2022-08-22T16:49:10.891Z,98831.66
2022-08-22T16:52:27.980Z,98840.70
2022-08-22T16:55:09.438Z,98841.55
2022-08-22T16:57:59.441Z,98848.21
2022-08-22T17:00:57.728Z,98842.20
2022-08-22T17:03:56.280Z,98841.47
2022-08-22T17:06:59.459Z,98851.95
2022-08-22T17:09:57.517Z,98850.67
2022-08-22T17:12:49.489Z,98852.48
2022-08-22T17:15:53.143Z,98857.92
2022-08-22T17:19:17.684Z,98864.87
2022-08-22T17:22:01.498Z,98866.44
2022-08-22T17:24:44.522Z,98861.27
2022-08-22T17:27:35.072Z,98867.17
2022-08-22T17:30:12.593Z,98866.02
2022-08-22T17:33:07.570Z,98871.76
2022-08-22T17:35:54.980Z,98871.96
2022-08-22T17:38:37.475Z,98873.90
2022-08-22T17:41:50.470Z,98876.02
2022-08-22T17:44:28.480Z,98882.84
2022-08-22T17:47:10.738Z,98879.61
2022-08-22T17:49:42.381Z,98878.18
2022-08-22T17:52:38.530Z,98877.07
2022-08-22T17:55:24.376Z,98881.17
2022-08-22T17:58:37.682Z,98879.34
2022-08-22T18:01:10.687Z,98879.71
2022-08-22T18:03:42.378Z,98881.97
2022-08-22T18:06:16.662Z,98887.10
2022-08-22T18:11:54.536Z,98891.38
2022-08-22T18:14:32.358Z,98895.09
2022-08-22T18:17:01.102Z,98897.91
2022-08-22T18:19:50.213Z,98895.02
2022-08-22T18:22:25.128Z,98893.70
2022-08-22T18:25:01.908Z,98903.10
2022-08-22T18:27:36.807Z,98905.94
2022-08-22T18:30:26.616Z,98918.55
2022-08-22T18:33:08.195Z,98918.95
2022-08-22T18:35:54.452Z,98920.31
2022-08-22T18:38:51.553Z,98924.62
2022-08-22T18:41:19.223Z,98923.88
2022-08-22T18:43:48.572Z,98922.20
2022-08-22T18:46:28.943Z,98916.55
2022-08-22T18:49:14.485Z,98915.06
2022-08-22T18:51:43.990Z,98918.55
2022-08-22T18:54:52.690Z,98916.88
2022-08-22T18:57:53.155Z,98915.30
2022-08-22T19:00:38.953Z,98913.65
2022-08-22T19:03:25.511Z,98912.48
2022-08-22T19:06:15.416Z,98905.77
2022-08-22T19:08:53.481Z,98911.05
2022-08-22T19:11:36.867Z,98912.98
2022-08-22T19:14:31.325Z,98911.48
2022-08-22T19:17:36.845Z,98906.36
2022-08-22T19:20:57.585Z,98897.16
2022-08-22T19:23:48.639Z,98903.41
2022-08-22T19:27:04.666Z,98901.52
2022-08-22T19:29:44.472Z,98904.80
2022-08-22T19:33:03.453Z,98904.55
2022-08-22T19:35:50.282Z,98907.38
2022-08-22T19:38:50.950Z,98906.88
2022-08-22T19:41:44.759Z,98901.94
2022-08-22T19:44:32.608Z,98909.36
2022-08-22T19:47:23.978Z,98903.09
2022-08-22T19:50:07.602Z,98907.23
2022-08-22T19:53:25.273Z,98903.59
2022-08-22T19:56:07.204Z,98908.44
2022-08-22T19:58:51.920Z,98904.76
2022-08-22T20:01:23.776Z,98906.06
2022-08-22T20:04:10.692Z,98910.88
2022-08-22T20:07:14.733Z,98914.74
2022-08-22T20:10:13.443Z,98913.95
2022-08-22T20:13:07.672Z,98912.89
2022-08-22T20:16:00.766Z,98912.98
2022-08-22T20:19:06.536Z,98911.76
2022-08-22T20:21:58.785Z,98910.73
2022-08-22T20:24:52.698Z,98908.73
2022-08-22T20:27:31.048Z,98899.84
2022-08-22T20:30:08.048Z,98895.23
2022-08-22T20:32:44.413Z,98892.27
2022-08-22T20:35:19.758Z,98894.23
2022-08-22T20:38:30.422Z,98877.40
2022-08-22T20:41:27.166Z,98881.91
2022-08-22T20:44:18.544Z,98874.30
2022-08-22T20:47:08.500Z,98865.70
2022-08-22T20:49:48.807Z,98859.73
2022-08-22T20:52:54.340Z,98859.00
2022-08-22T20:55:41.066Z,98865.30
2022-08-22T20:58:39.350Z,98861.09
2022-08-22T21:01:41.259Z,98867.27
2022-08-22T21:04:32.481Z,98870.12
2022-08-22T21:07:10.456Z,98873.85
2022-08-22T21:11:51.391Z,98872.14
2022-08-22T21:13:40.210Z,98870.37
2022-08-22T21:16:43.886Z,98861.95
2022-08-22T21:19:43.679Z,98852.77
2022-08-22T21:22:46.752Z,98861.92
2022-08-22T21:25:37.644Z,98868.92
2022-08-22T21:28:33.605Z,98867.89
2022-08-22T21:31:24.135Z,98867.08
2022-08-22T21:34:20.399Z,98866.61
2022-08-22T21:37:45.511Z,98872.44
2022-08-22T21:40:22.396Z,98869.95
2022-08-22T21:43:15.134Z,98872.15
2022-08-22T21:45:57.198Z,98861.77
2022-08-22T21:48:41.838Z,98868.98
2022-08-22T21:51:29.565Z,98875.30
2022-08-22T21:54:31.925Z,98874.90
2022-08-22T21:57:26.137Z,98880.90
2022-08-22T22:00:02.245Z,98877.55
2022-08-22T22:02:53.209Z,98871.87
2022-08-22T22:05:36.162Z,98868.42
2022-08-22T22:08:14.899Z,98871.25
2022-08-22T22:10:55.437Z,98862.38
2022-08-22T22:13:29.904Z,98867.58
2022-08-22T22:16:11.375Z,98856.32
2022-08-22T22:19:23.437Z,98853.95
2022-08-22T22:22:14.085Z,98850.65
2022-08-22T22:25:01.790Z,98845.89
2022-08-22T22:27:36.816Z,98831.89
2022-08-22T22:30:13.767Z,98848.23
2022-08-22T22:32:49.400Z,98839.90
2022-08-22T22:35:27.475Z,98838.66
2022-08-22T22:38:03.061Z,98837.25
2022-08-22T22:40:56.901Z,98832.70
2022-08-22T22:43:42.009Z,98834.14
2022-08-22T22:46:18.301Z,98831.98
2022-08-22T22:48:54.517Z,98817.60
2022-08-22T22:51:27.913Z,98818.04
2022-08-22T22:54:11.424Z,98814.78
2022-08-22T22:56:52.556Z,98819.50
2022-08-22T22:59:27.923Z,98815.65
2022-08-22T23:02:05.717Z,98816.80
2022-08-22T23:04:37.908Z,98815.22
2022-08-22T23:07:09.987Z,98805.28
2022-08-22T23:09:44.843Z,98809.77
2022-08-22T23:12:16.170Z,98806.36
2022-08-22T23:14:46.601Z,98805.27
2022-08-22T23:17:17.909Z,98791.62
2022-08-22T23:19:47.629Z,98795.98
2022-08-22T23:22:15.685Z,98797.07
2022-08-22T23:24:49.370Z,98796.79
2022-08-22T23:27:21.173Z,98800.80
2022-08-22T23:29:53.532Z,98802.96
2022-08-22T23:32:21.585Z,98808.31
2022-08-22T23:34:49.766Z,98803.56
2022-08-22T23:37:20.668Z,98798.05
2022-08-22T23:39:49.110Z,98802.65
2022-08-22T23:42:18.289Z,98809.77
2022-08-22T23:44:56.261Z,98806.70
2022-08-22T23:47:24.226Z,98808.15
2022-08-22T23:49:52.154Z,98811.39
2022-08-22T23:52:20.944Z,98816.00
2022-08-22T23:54:51.530Z,98811.77
2022-08-22T23:57:27.464Z,98808.64
2022-08-22T23:59:57.820Z,98809.84
